Meishomaru — JD3044 — position and weather

sailwx.info

Track history (hours):
 
Tides and Currents Weather Stations Pressure Air Temp Water Temp Dewpoint Dewpoint Depression Visibility Wind Speed Wind Dir Waves Ship Positions

Meishomaru

Last reported at 2016-May-04 15:07 UTC. Time now 2016-May-05 08:37 UTC.
Position N 35°06' E 139°40'.

Length 68 m; draft 4 m.

Type: Tanker. MMSI: 431001216.

Date/timePositionNaut miles runAvg speedWind from/ knotsBaromVisibWave heightAir tempDewpointWater temp
2016-May-04 15:07N 35°06' E 139°40'610.8
2016-May-04 14:33N 35°11' E 139°45'1010.0
2016-May-04 13:34N 35°21' E 139°42'1110.6
2016-May-04 12:34N 35°29' E 139°50'5 5.4
2016-May-04 11:34N 35°33' E 139°55'0 0.0
2016-May-04 10:28N 35°33' E 139°55'0 0.0
2016-May-04 09:31N 35°33' E 139°55'0 0.0
2016-May-04 08:33N 35°33' E 139°55'0 0.0
2016-May-04 07:33N 35°33' E 139°55'0 0.0
2016-May-04 06:33N 35°33' E 139°55'0 0.0
2016-May-04 05:33N 35°33' E 139°55'0 0.0
2016-May-04 04:33N 35°33' E 139°55'0 0.0
2016-May-04 03:32N 35°33' E 139°55'0 0.0
2016-May-04 02:26N 35°33' E 139°55'0 0.0
2016-May-04 01:31N 35°33' E 139°55'0 0.0
2016-May-04 00:33N 35°33' E 139°55'0 0.0
2016-May-03 23:33N 35°33' E 139°55'0 0.0
2016-May-03 22:32N 35°33' E 139°55'0 0.0
2016-May-03 21:33N 35°33' E 139°55'0 0.0
2016-May-03 20:32N 35°33' E 139°55'0 0.0
2016-May-03 19:33N 35°33' E 139°55'0 0.0
2016-May-03 18:34N 35°33' E 139°55'0 0.0
2016-May-03 17:28N 35°33' E 139°55'0 0.0
2016-May-03 16:32N 35°33' E 139°55'0 0.0
2016-May-03 15:33N 35°33' E 139°55'0 0.0
2016-May-03 14:33N 35°33' E 139°55'0 0.0
2016-May-03 13:33N 35°33' E 139°55'0 0.0
2016-May-03 12:28N 35°33' E 139°55'0 0.0
2016-May-03 11:33N 35°33' E 139°55'0 0.0
2016-May-03 10:33N 35°33' E 139°55'0 0.0
2016-May-03 09:33N 35°33' E 139°55'0 0.0
2016-May-03 08:33N 35°33' E 139°55'0 0.0
2016-May-03 07:33N 35°33' E 139°55'8 7.6
2016-May-03 06:34N 35°31' E 139°46'0 0.0
2016-May-03 05:33N 35°31' E 139°46'0 0.0
2016-May-03 04:30N 35°31' E 139°46'0 0.0
2016-May-03 03:33N 35°31' E 139°46'0 0.0
2016-May-03 02:33N 35°31' E 139°46'3 2.7
2016-May-03 01:31N 35°29' E 139°49'0 0.0
2016-May-03 00:31N 35°29' E 139°49'0 0.0
2016-May-02 23:31N 35°29' E 139°49'0 0.0
2016-May-02 22:31N 35°29' E 139°49'0 0.0
2016-May-02 21:31N 35°29' E 139°49'0 0.0
2016-May-02 20:31N 35°29' E 139°49'0 0.0
2016-May-02 19:31N 35°29' E 139°49'0 0.0
2016-May-02 18:31N 35°29' E 139°49'0 0.1
2016-May-02 17:31N 35°29' E 139°49'0 0.0
2016-May-02 16:31N 35°29' E 139°49'0 0.0
2016-May-02 15:31N 35°29' E 139°49'0 0.0
2016-May-02 14:31N 35°29' E 139°49'0 0.0
2016-May-02 13:31N 35°29' E 139°49'0 0.0
2016-May-02 12:31N 35°29' E 139°49'0 0.0
2016-May-02 11:31N 35°29' E 139°49'0 0.0
2016-May-02 10:31N 35°29' E 139°49'0 0.0
2016-May-02 09:31N 35°29' E 139°49'0 0.0
2016-May-02 08:31N 35°29' E 139°49'0 0.0
2016-May-02 07:31N 35°29' E 139°49'0 0.0
2016-May-02 06:31N 35°29' E 139°49'0 0.0
2016-May-02 05:31N 35°29' E 139°49'0 0.0
2016-May-02 04:31N 35°29' E 139°49'0 0.0
2016-May-02 03:31N 35°29' E 139°49'0 0.0
2016-May-02 02:31N 35°29' E 139°49'0 0.0
2016-May-02 01:31N 35°29' E 139°49'0 0.0
2016-May-02 00:31N 35°29' E 139°49'0 0.0
2016-May-01 23:31N 35°29' E 139°49'0 0.0
2016-May-01 22:31N 35°29' E 139°49'0 0.0
2016-May-01 21:31N 35°29' E 139°49'0 0.0
2016-May-01 20:31N 35°29' E 139°49'0 0.0
2016-May-01 19:31N 35°29' E 139°49'0 0.0
2016-May-01 18:31N 35°29' E 139°49'0 0.0
2016-May-01 17:31N 35°29' E 139°49'0 0.0
2016-May-01 16:31N 35°29' E 139°49'0 0.0
2016-May-01 15:31N 35°29' E 139°49'0 0.0
2016-May-01 14:31N 35°29' E 139°49'7 6.8
2016-May-01 13:33N 35°23' E 139°46'1111.0
2016-May-01 12:33N 35°12' E 139°47'1111.2
2016-May-01 11:33N 35°02' E 139°41'  
2016-Apr-26 07:32N 35°13' E 139°46'1010.7
2016-Apr-26 06:33N 35°23' E 139°42'1111.1
2016-Apr-26 05:33N 35°30' E 139°53'9 9.0
2016-Apr-26 04:33N 35°32' E 140°03'0 0.0
2016-Apr-26 03:28N 35°32' E 140°03'0 0.0
2016-Apr-26 02:28N 35°32' E 140°03'0 0.0
2016-Apr-26 01:31N 35°32' E 140°03'0 0.0
2016-Apr-26 00:31N 35°32' E 140°03'1 1.1
2016-Apr-25 23:33N 35°32' E 140°02'6 6.2
2016-Apr-25 22:33N 35°29' E 139°56'0 0.0
2016-Apr-25 21:33N 35°29' E 139°56'0 0.0
2016-Apr-25 20:30N 35°29' E 139°56'0 0.0
2016-Apr-25 19:30N 35°29' E 139°56'0 0.0
2016-Apr-25 18:33N 35°29' E 139°56'0 0.0
2016-Apr-25 17:30N 35°29' E 139°56'0 0.0
2016-Apr-25 16:33N 35°29' E 139°56'0 0.0
2016-Apr-25 15:30N 35°29' E 139°56'0 0.0
2016-Apr-25 14:27N 35°29' E 139°56'0 0.0
2016-Apr-25 13:33N 35°29' E 139°56'0 0.0
2016-Apr-25 12:33N 35°29' E 139°56'0 0.0
2016-Apr-25 11:27N 35°29' E 139°56'0 0.0
2016-Apr-25 10:30N 35°29' E 139°56'6 6.9
2016-Apr-25 09:34N 35°26' E 139°49'1110.5
2016-Apr-25 08:33N 35°15' E 139°47'1211.7
2016-Apr-25 07:33N 35°04' E 139°43'  
Track history (hours):
 
Tides and Currents Weather Stations Pressure Air Temp Water Temp Dewpoint Dewpoint Depression Visibility Wind Speed Wind Dir Waves Ship Positions

Meishomaru

Last reported at 2016-May-04 15:07 UTC. Time now 2016-May-05 08:37 UTC.
Position N 35°06' E 139°40'.

Length 68 m; draft 4 m.

Type: Tanker. MMSI: 431001216.

Date/timePositionNaut miles runAvg speedWind from/ knotsBaromVisibWave heightAir tempDewpointWater temp
2016-May-04 15:07N 35°06' E 139°40'610.8
2016-May-04 14:33N 35°11' E 139°45'1010.0
2016-May-04 13:34N 35°21' E 139°42'1110.6
2016-May-04 12:34N 35°29' E 139°50'5 5.4
2016-May-04 11:34N 35°33' E 139°55'0 0.0
2016-May-04 10:28N 35°33' E 139°55'0 0.0
2016-May-04 09:31N 35°33' E 139°55'0 0.0
2016-May-04 08:33N 35°33' E 139°55'0 0.0
2016-May-04 07:33N 35°33' E 139°55'0 0.0
2016-May-04 06:33N 35°33' E 139°55'0 0.0
2016-May-04 05:33N 35°33' E 139°55'0 0.0
2016-May-04 04:33N 35°33' E 139°55'0 0.0
2016-May-04 03:32N 35°33' E 139°55'0 0.0
2016-May-04 02:26N 35°33' E 139°55'0 0.0
2016-May-04 01:31N 35°33' E 139°55'0 0.0
2016-May-04 00:33N 35°33' E 139°55'0 0.0
2016-May-03 23:33N 35°33' E 139°55'0 0.0
2016-May-03 22:32N 35°33' E 139°55'0 0.0
2016-May-03 21:33N 35°33' E 139°55'0 0.0
2016-May-03 20:32N 35°33' E 139°55'0 0.0
2016-May-03 19:33N 35°33' E 139°55'0 0.0
2016-May-03 18:34N 35°33' E 139°55'0 0.0
2016-May-03 17:28N 35°33' E 139°55'0 0.0
2016-May-03 16:32N 35°33' E 139°55'0 0.0
2016-May-03 15:33N 35°33' E 139°55'0 0.0
2016-May-03 14:33N 35°33' E 139°55'0 0.0
2016-May-03 13:33N 35°33' E 139°55'0 0.0
2016-May-03 12:28N 35°33' E 139°55'0 0.0
2016-May-03 11:33N 35°33' E 139°55'0 0.0
2016-May-03 10:33N 35°33' E 139°55'0 0.0
2016-May-03 09:33N 35°33' E 139°55'0 0.0
2016-May-03 08:33N 35°33' E 139°55'0 0.0
2016-May-03 07:33N 35°33' E 139°55'8 7.6
2016-May-03 06:34N 35°31' E 139°46'0 0.0
2016-May-03 05:33N 35°31' E 139°46'0 0.0
2016-May-03 04:30N 35°31' E 139°46'0 0.0
2016-May-03 03:33N 35°31' E 139°46'0 0.0
2016-May-03 02:33N 35°31' E 139°46'3 2.7
2016-May-03 01:31N 35°29' E 139°49'0 0.0
2016-May-03 00:31N 35°29' E 139°49'0 0.0
2016-May-02 23:31N 35°29' E 139°49'0 0.0
2016-May-02 22:31N 35°29' E 139°49'0 0.0
2016-May-02 21:31N 35°29' E 139°49'0 0.0
2016-May-02 20:31N 35°29' E 139°49'0 0.0
2016-May-02 19:31N 35°29' E 139°49'0 0.0
2016-May-02 18:31N 35°29' E 139°49'0 0.1
2016-May-02 17:31N 35°29' E 139°49'0 0.0
2016-May-02 16:31N 35°29' E 139°49'0 0.0
2016-May-02 15:31N 35°29' E 139°49'0 0.0
2016-May-02 14:31N 35°29' E 139°49'0 0.0
2016-May-02 13:31N 35°29' E 139°49'0 0.0
2016-May-02 12:31N 35°29' E 139°49'0 0.0
2016-May-02 11:31N 35°29' E 139°49'0 0.0
2016-May-02 10:31N 35°29' E 139°49'0 0.0
2016-May-02 09:31N 35°29' E 139°49'0 0.0
2016-May-02 08:31N 35°29' E 139°49'0 0.0
2016-May-02 07:31N 35°29' E 139°49'0 0.0
2016-May-02 06:31N 35°29' E 139°49'0 0.0
2016-May-02 05:31N 35°29' E 139°49'0 0.0
2016-May-02 04:31N 35°29' E 139°49'0 0.0
2016-May-02 03:31N 35°29' E 139°49'0 0.0
2016-May-02 02:31N 35°29' E 139°49'0 0.0
2016-May-02 01:31N 35°29' E 139°49'0 0.0
2016-May-02 00:31N 35°29' E 139°49'0 0.0
2016-May-01 23:31N 35°29' E 139°49'0 0.0
2016-May-01 22:31N 35°29' E 139°49'0 0.0
2016-May-01 21:31N 35°29' E 139°49'0 0.0
2016-May-01 20:31N 35°29' E 139°49'0 0.0
2016-May-01 19:31N 35°29' E 139°49'0 0.0
2016-May-01 18:31N 35°29' E 139°49'0 0.0
2016-May-01 17:31N 35°29' E 139°49'0 0.0
2016-May-01 16:31N 35°29' E 139°49'0 0.0
2016-May-01 15:31N 35°29' E 139°49'0 0.0
2016-May-01 14:31N 35°29' E 139°49'7 6.8
2016-May-01 13:33N 35°23' E 139°46'1111.0
2016-May-01 12:33N 35°12' E 139°47'1111.2
2016-May-01 11:33N 35°02' E 139°41'  
2016-Apr-26 07:32N 35°13' E 139°46'1010.7
2016-Apr-26 06:33N 35°23' E 139°42'1111.1
2016-Apr-26 05:33N 35°30' E 139°53'9 9.0
2016-Apr-26 04:33N 35°32' E 140°03'0 0.0
2016-Apr-26 03:28N 35°32' E 140°03'0 0.0
2016-Apr-26 02:28N 35°32' E 140°03'0 0.0
2016-Apr-26 01:31N 35°32' E 140°03'0 0.0
2016-Apr-26 00:31N 35°32' E 140°03'1 1.1
2016-Apr-25 23:33N 35°32' E 140°02'6 6.2
2016-Apr-25 22:33N 35°29' E 139°56'0 0.0
2016-Apr-25 21:33N 35°29' E 139°56'0 0.0
2016-Apr-25 20:30N 35°29' E 139°56'0 0.0
2016-Apr-25 19:30N 35°29' E 139°56'0 0.0
2016-Apr-25 18:33N 35°29' E 139°56'0 0.0
2016-Apr-25 17:30N 35°29' E 139°56'0 0.0
2016-Apr-25 16:33N 35°29' E 139°56'0 0.0
2016-Apr-25 15:30N 35°29' E 139°56'0 0.0
2016-Apr-25 14:27N 35°29' E 139°56'0 0.0
2016-Apr-25 13:33N 35°29' E 139°56'0 0.0
2016-Apr-25 12:33N 35°29' E 139°56'0 0.0
2016-Apr-25 11:27N 35°29' E 139°56'0 0.0
2016-Apr-25 10:30N 35°29' E 139°56'6 6.9
2016-Apr-25 09:34N 35°26' E 139°49'1110.5
2016-Apr-25 08:33N 35°15' E 139°47'1211.7
2016-Apr-25 07:33N 35°04' E 139°43'  

Dump ship's entire track history